Time;durP1;ratioP1;P1;durP2;ratioP2;P2;SDS_P1;SDS_P2;PMS_P1;PMS_P2;Temp;Humidity;BMP_temperature;BMP_pressure;BME280_temperature;BME280_humidity;BME280_pressure;Samples;Min_cycle;Max_cycle;Signal;HPM_P1;HPM_P2
2023/03/04 00:01:17;;;;;;;5.20;2.63;;;;;;;17.22;45.66;102808.53;6288671;22;20010;-92
2023/03/04 00:03:43;;;;;;;4.38;2.30;;;;;;;17.23;45.58;102815.50;6288417;22;20551;-93
2023/03/04 00:06:08;;;;;;;5.25;2.30;;;;;;;17.22;45.43;102813.75;6261490;22;20011;-93
2023/03/04 00:08:34;;;;;;;6.88;2.42;;;;;;;17.21;45.58;102814.56;6289264;22;20313;-94
2023/03/04 00:11:00;;;;;;;5.43;2.28;;;;;;;17.22;45.70;102818.03;6287875;22;19999;-92
2023/03/04 00:13:25;;;;;;;6.05;2.40;;;;;;;17.20;45.60;102812.84;6287733;22;20034;-93
2023/03/04 00:15:51;;;;;;;4.63;2.20;;;;;;;17.21;45.42;102814.56;6288146;22;20014;-92
2023/03/04 00:18:19;;;;;;;5.40;2.10;;;;;;;17.21;45.52;102817.19;6292118;22;20018;-93
2023/03/04 00:20:45;;;;;;;6.07;2.20;;;;;;;17.20;45.46;102810.22;6289543;22;20003;-94
2023/03/04 00:23:13;;;;;;;5.85;2.50;;;;;;;17.20;45.51;102820.63;6262770;22;20015;-93
2023/03/04 00:25:39;;;;;;;6.38;1.90;;;;;;;17.20;45.51;102811.94;6265083;22;20385;-93
2023/03/04 00:28:04;;;;;;;4.35;2.00;;;;;;;17.20;45.59;102818.03;6289816;22;20014;-93
2023/03/04 00:30:30;;;;;;;6.03;1.95;;;;;;;17.20;45.41;102811.94;6288930;22;19996;-94
2023/03/04 00:32:55;;;;;;;3.90;1.85;;;;;;;17.18;45.36;102814.50;6264649;22;20004;-93
2023/03/04 00:35:23;;;;;;;5.63;2.20;;;;;;;17.18;45.44;102809.31;6303333;22;20007;-95
2023/03/04 00:37:49;;;;;;;4.38;1.77;;;;;;;17.18;45.54;102813.59;6264436;22;20050;-93
2023/03/04 00:40:15;;;;;;;4.75;1.95;;;;;;;17.18;45.49;102806.72;6290324;22;20041;-93
2023/03/04 00:42:47;;;;;;;6.78;2.40;;;;;;;17.18;45.52;102805.81;6295888;22;20003;-93
2023/03/04 00:45:14;;;;;;;4.88;1.90;;;;;;;17.17;45.45;102801.47;6292532;22;20030;-94
2023/03/04 00:47:40;;;;;;;4.63;2.08;;;;;;;17.17;45.39;102807.53;6289806;22;20007;-93
2023/03/04 00:50:06;;;;;;;5.13;1.98;;;;;;;17.18;45.37;102809.31;6262467;22;20000;-94
2023/03/04 00:52:31;;;;;;;3.78;1.90;;;;;;;17.17;45.39;102804.94;6258602;22;20062;-93
2023/03/04 00:54:59;;;;;;;5.55;2.38;;;;;;;17.17;45.41;102814.47;6284649;22;20288;-92
2023/03/04 00:57:25;;;;;;;4.35;1.80;;;;;;;17.16;45.50;102813.59;6286815;22;20000;-93
2023/03/04 00:59:50;;;;;;;4.60;1.70;;;;;;;17.18;45.13;102816.22;6260431;22;20404;-93
2023/03/04 01:02:16;;;;;;;4.70;1.80;;;;;;;17.16;45.42;102811.00;6286488;22;20009;-92
2023/03/04 01:04:44;;;;;;;4.18;1.90;;;;;;;17.15;45.34;102819.63;6297834;22;20136;-93
2023/03/04 01:07:10;;;;;;;5.05;1.90;;;;;;;17.15;45.36;102813.56;6281259;22;20018;-93
2023/03/04 01:09:35;;;;;;;3.40;1.60;;;;;;;17.15;45.28;102816.16;6283382;22;20007;-94
2023/03/04 01:12:01;;;;;;;3.83;1.85;;;;;;;17.15;45.33;102817.03;6280823;22;20018;-93
2023/03/04 01:14:27;;;;;;;4.38;1.95;;;;;;;17.14;45.55;102817.88;6301723;22;20035;-90
2023/03/04 01:16:52;;;;;;;3.80;1.63;;;;;;;17.14;45.45;102806.59;6248654;22;19991;-89
2023/03/04 01:19:18;;;;;;;3.28;1.73;;;;;;;17.14;45.39;102809.22;6265015;22;20023;-91
2023/03/04 01:21:44;;;;;;;4.20;1.73;;;;;;;17.14;45.22;102811.81;6260944;22;20011;-91
2023/03/04 01:24:09;;;;;;;5.30;1.60;;;;;;;17.13;45.14;102808.31;6260820;22;20042;-90
2023/03/04 01:26:35;;;;;;;5.93;1.73;;;;;;;17.13;45.40;102799.63;6286065;22;20026;-91
2023/03/04 01:29:03;;;;;;;4.90;1.70;;;;;;;17.14;45.36;102804.88;6285866;22;20300;-90
2023/03/04 01:31:29;;;;;;;3.22;1.73;;;;;;;17.12;45.38;102800.47;6286561;22;20045;-90
2023/03/04 01:33:54;;;;;;;3.47;1.70;;;;;;;17.13;45.30;102797.91;6234342;22;20011;-92
2023/03/04 01:36:20;;;;;;;5.80;1.83;;;;;;;17.12;45.24;102792.69;6285505;22;20274;-92
2023/03/04 01:38:45;;;;;;;5.10;1.85;;;;;;;17.12;45.54;102785.75;6285642;22;20313;-91
2023/03/04 01:41:12;;;;;;;6.57;1.63;;;;;;;17.13;45.34;102786.63;6235245;22;20371;-90
2023/03/04 01:43:38;;;;;;;4.35;2.05;;;;;;;17.12;45.28;102780.53;6285346;22;20073;-92
2023/03/04 01:46:04;;;;;;;3.25;1.52;;;;;;;17.12;45.24;102779.66;6285237;22;19999;-92
2023/03/04 01:48:36;;;;;;;3.72;1.40;;;;;;;17.11;45.13;102775.28;6285382;22;20004;-91
2023/03/04 01:51:03;;;;;;;6.22;1.80;;;;;;;17.12;45.35;102771.88;6284938;22;20088;-90
2023/03/04 01:53:31;;;;;;;4.05;1.55;;;;;;;17.10;45.27;102770.94;6285048;22;20007;-90
2023/03/04 01:56:22;;;;;;;3.17;1.35;;;;;;;17.11;45.39;102767.50;6285247;22;20007;-90
2023/03/04 01:59:06;;;;;;;3.42;1.50;;;;;;;17.11;45.24;102770.09;6286234;22;20007;-93
2023/03/04 02:01:31;;;;;;;4.15;1.55;;;;;;;17.11;45.50;102770.09;6293283;22;20109;-92
2023/03/04 02:04:03;;;;;;;3.20;1.52;;;;;;;17.10;45.18;102764.03;6286006;22;20436;-94
2023/03/04 02:06:29;;;;;;;3.60;1.50;;;;;;;17.10;45.28;102763.16;6273605;22;20007;-92
2023/03/04 02:08:55;;;;;;;3.85;1.70;;;;;;;17.10;45.39;102756.22;6305427;22;20006;-93
2023/03/04 02:11:20;;;;;;;4.22;1.35;;;;;;;17.08;45.37;102752.69;6305050;22;20006;-93
2023/03/04 02:13:46;;;;;;;3.50;1.55;;;;;;;17.09;45.11;102751.84;6251985;22;20063;-89
2023/03/04 02:16:11;;;;;;;3.88;1.40;;;;;;;17.09;45.34;102748.38;6254555;22;20006;-90
2023/03/04 02:18:37;;;;;;;4.95;1.40;;;;;;;17.09;45.37;102743.16;6280942;22;19999;-90
2023/03/04 02:21:08;;;;;;;4.28;1.40;;;;;;;17.08;45.32;102744.91;6279372;22;20014;-91
2023/03/04 02:23:58;;;;;;;2.67;1.40;;;;;;;17.06;45.31;102739.66;6306679;22;20021;-89
2023/03/04 02:26:26;;;;;;;3.15;1.45;;;;;;;17.06;45.11;102734.44;6307292;22;20014;-91
2023/03/04 02:28:53;;;;;;;3.47;1.52;;;;;;;17.06;45.22;102731.84;6305791;22;20011;-92
2023/03/04 02:31:26;;;;;;;4.03;1.60;;;;;;;17.08;45.03;102725.81;6271896;22;20006;-91
2023/03/04 02:33:55;;;;;;;3.97;1.60;;;;;;;17.07;45.18;102722.31;6295632;22;20033;-91
2023/03/04 02:36:21;;;;;;;4.00;1.50;;;;;;;17.06;45.08;102720.56;6296481;22;20003;-90
2023/03/04 02:38:49;;;;;;;3.90;1.40;;;;;;;17.06;45.23;102723.16;6268576;22;20011;-90
2023/03/04 02:41:19;;;;;;;2.30;1.30;;;;;;;17.05;45.27;102721.44;6293022;22;20014;-88
2023/03/04 02:43:46;;;;;;;3.65;1.50;;;;;;;17.05;45.14;102730.09;6301847;22;20030;-92
2023/03/04 02:46:12;;;;;;;2.92;1.48;;;;;;;17.05;45.21;102713.63;6295932;22;20007;-91
2023/03/04 02:48:38;;;;;;;3.10;1.40;;;;;;;17.05;45.15;102708.44;6295065;22;20161;-91
2023/03/04 02:51:04;;;;;;;6.30;2.78;;;;;;;17.04;45.09;102710.13;6246695;22;20034;-91
2023/03/04 02:53:29;;;;;;;3.25;1.45;;;;;;;17.04;44.92;102699.72;6273439;22;20117;-92
2023/03/04 02:55:55;;;;;;;3.22;1.30;;;;;;;17.04;45.07;102712.72;6273914;22;19999;-92
2023/03/04 02:58:20;;;;;;;3.05;1.15;;;;;;;17.03;45.15;102708.38;6274803;22;20007;-93
2023/03/04 03:00:46;;;;;;;3.35;1.40;;;;;;;17.04;45.14;102710.13;6304479;22;19998;-91
2023/03/04 03:03:12;;;;;;;1.42;0.80;;;;;;;17.04;44.99;102712.72;6304377;22;20014;-92
2023/03/04 03:05:38;;;;;;;3.55;1.67;;;;;;;17.03;45.13;102702.31;6271923;22;20011;-92
2023/03/04 03:08:05;;;;;;;2.50;1.10;;;;;;;17.02;45.02;102704.00;6263353;22;20095;-91
2023/03/04 03:10:30;;;;;;;2.13;1.10;;;;;;;17.03;45.02;102703.19;6289449;22;20415;-93
2023/03/04 03:12:56;;;;;;;3.47;1.30;;;;;;;17.02;44.80;102700.53;6287883;22;20007;-92
2023/03/04 03:15:21;;;;;;;2.45;0.93;;;;;;;17.03;44.83;102702.31;6263280;22;20424;-92
2023/03/04 03:17:47;;;;;;;2.42;1.20;;;;;;;17.01;44.95;102691.84;6262578;22;20189;-91
2023/03/04 03:20:14;;;;;;;3.40;1.38;;;;;;;17.02;45.01;102697.94;6262154;22;20007;-91
2023/03/04 03:22:39;;;;;;;4.10;1.20;;;;;;;17.01;44.99;102699.66;6287041;22;20018;-91
2023/03/04 03:25:08;;;;;;;2.95;1.23;;;;;;;17.01;45.06;102706.59;6236119;22;20007;-89
2023/03/04 03:27:34;;;;;;;3.50;1.23;;;;;;;17.01;45.09;102701.38;6236573;22;20023;-91
2023/03/04 03:29:59;;;;;;;3.55;1.33;;;;;;;17.01;45.04;102699.66;6259998;22;20019;-90
2023/03/04 03:32:25;;;;;;;2.75;1.20;;;;;;;17.00;45.05;102697.00;6260255;22;20038;-91
2023/03/04 03:34:50;;;;;;;3.25;1.20;;;;;;;16.99;45.07;102695.28;6285451;22;19999;-92
2023/03/04 03:37:16;;;;;;;2.65;1.20;;;;;;;17.00;45.10;102702.22;6259750;22;20007;-92
2023/03/04 03:39:42;;;;;;;2.42;1.20;;;;;;;17.00;45.15;102699.63;6234278;22;20011;-89
2023/03/04 03:42:07;;;;;;;3.35;1.30;;;;;;;16.99;44.85;102698.75;6284864;22;20488;-91
2023/03/04 03:44:33;;;;;;;3.45;1.30;;;;;;;16.97;44.95;102700.44;6284587;22;20007;-92
2023/03/04 03:46:59;;;;;;;2.83;1.13;;;;;;;16.97;45.17;102696.97;6262009;22;20007;-92
2023/03/04 03:49:24;;;;;;;2.38;1.10;;;;;;;16.97;45.05;102697.81;6279883;22;20007;-91
2023/03/04 03:51:49;;;;;;;2.10;1.15;;;;;;;16.98;45.25;102698.69;6304758;22;20007;-92
2023/03/04 03:54:15;;;;;;;3.20;1.05;;;;;;;16.97;45.13;102703.03;6304313;22;20504;-92
2023/03/04 03:56:40;;;;;;;2.42;1.05;;;;;;;16.97;45.08;102705.63;6251377;22;20022;-90
2023/03/04 03:59:06;;;;;;;2.42;1.15;;;;;;;16.96;44.98;102690.88;6262241;22;20007;-92
2023/03/04 04:01:32;;;;;;;2.35;0.98;;;;;;;16.96;44.74;102695.19;6234701;22;20088;-91
2023/03/04 04:03:59;;;;;;;2.97;1.20;;;;;;;16.96;45.04;102690.88;6259388;22;20069;-92
2023/03/04 04:06:25;;;;;;;2.30;1.13;;;;;;;16.96;45.07;102689.97;6258656;22;20355;-91
2023/03/04 04:08:51;;;;;;;3.13;1.30;;;;;;;16.97;45.00;102692.63;6288343;22;20086;-91
2023/03/04 04:11:17;;;;;;;2.53;1.10;;;;;;;16.96;44.92;102695.19;6286325;22;20054;-92
2023/03/04 04:13:44;;;;;;;2.65;1.00;;;;;;;16.94;45.09;102692.56;6286545;22;20011;-90
2023/03/04 04:16:10;;;;;;;2.70;1.13;;;;;;;16.95;44.97;102693.44;6260427;22;20011;-90
2023/03/04 04:18:36;;;;;;;3.15;1.17;;;;;;;16.94;44.85;102687.38;6285933;22;20300;-91
2023/03/04 04:21:03;;;;;;;2.75;1.20;;;;;;;16.94;44.95;102687.38;6285813;22;20006;-92
2023/03/04 04:23:29;;;;;;;3.25;1.20;;;;;;;16.94;45.05;102679.56;6260391;22;20045;-90
2023/03/04 04:25:55;;;;;;;3.92;1.17;;;;;;;16.95;44.99;102678.72;6259916;22;20014;-91
2023/03/04 04:28:20;;;;;;;3.47;1.02;;;;;;;16.93;44.84;102676.94;6285913;22;20343;-91
2023/03/04 04:30:49;;;;;;;3.47;1.13;;;;;;;16.94;45.11;102681.28;6285947;22;19996;-91
2023/03/04 04:33:15;;;;;;;3.10;1.30;;;;;;;16.93;45.05;102680.41;6288524;22;20079;-91
2023/03/04 04:35:41;;;;;;;3.75;1.30;;;;;;;16.93;45.06;102679.53;6262213;22;20034;-91
2023/03/04 04:38:08;;;;;;;2.05;0.98;;;;;;;16.94;44.95;102676.06;6285899;22;20416;-91
2023/03/04 04:40:34;;;;;;;2.10;1.00;;;;;;;16.93;45.04;102679.53;6285944;22;20000;-92
2023/03/04 04:42:59;;;;;;;3.13;1.15;;;;;;;16.92;44.93;102672.56;6285691;22;20447;-92
2023/03/04 04:45:25;;;;;;;2.25;0.80;;;;;;;16.91;45.04;102681.22;6286025;22;20003;-90
2023/03/04 04:47:52;;;;;;;2.65;1.10;;;;;;;16.93;44.86;102684.72;6260317;22;20015;-92
2023/03/04 04:50:18;;;;;;;2.95;1.20;;;;;;;16.93;44.89;102688.19;6262036;22;20049;-90
2023/03/04 04:52:43;;;;;;;3.90;1.35;;;;;;;16.93;44.96;102688.19;6287000;22;19999;-91
2023/03/04 04:55:09;;;;;;;3.38;1.20;;;;;;;16.94;45.17;102687.38;6259730;22;20093;-90
2023/03/04 04:57:35;;;;;;;1.98;1.00;;;;;;;16.95;45.17;102690.84;6285392;22;20003;-90
2023/03/04 05:00:02;;;;;;;2.35;1.10;;;;;;;16.94;45.08;102692.56;6285367;22;20010;-94
2023/03/04 05:02:27;;;;;;;2.33;1.00;;;;;;;16.95;45.06;102689.13;6285529;22;20011;-92
2023/03/04 05:04:53;;;;;;;2.20;0.80;;;;;;;16.96;44.97;102689.97;6260337;22;20017;-92
2023/03/04 05:07:18;;;;;;;3.13;0.90;;;;;;;16.95;45.00;102689.13;6259325;22;20004;-92
2023/03/04 05:09:44;;;;;;;2.13;1.02;;;;;;;16.96;44.96;102693.50;6233882;22;20003;-91
2023/03/04 05:12:12;;;;;;;2.72;1.00;;;;;;;16.97;44.98;102695.22;6285335;22;20015;-91
2023/03/04 05:14:38;;;;;;;2.85;0.90;;;;;;;16.97;45.05;102695.22;6259500;22;20007;-92
2023/03/04 05:17:03;;;;;;;2.70;1.10;;;;;;;16.98;45.11;102691.78;6259065;22;20018;-91
2023/03/04 05:19:29;;;;;;;2.15;0.80;;;;;;;16.97;45.02;102697.81;6284527;22;20390;-92
2023/03/04 05:21:54;;;;;;;2.63;0.80;;;;;;;16.98;45.05;102701.31;6284871;22;20007;-92
2023/03/04 05:24:20;;;;;;;2.45;0.95;;;;;;;16.97;45.07;102697.81;6285120;22;20006;-90
2023/03/04 05:26:46;;;;;;;2.55;0.90;;;;;;;16.98;45.10;102696.97;6285108;22;20501;-92
2023/03/04 05:29:14;;;;;;;3.13;1.00;;;;;;;16.98;45.02;102698.69;6284992;22;20070;-91
2023/03/04 05:31:39;;;;;;;2.65;0.82;;;;;;;16.99;45.02;102703.06;6259517;22;20003;-91
2023/03/04 05:34:04;;;;;;;3.15;1.00;;;;;;;16.98;45.18;102696.97;6262596;22;20076;-91
2023/03/04 05:36:30;;;;;;;2.53;0.70;;;;;;;16.98;44.94;102699.56;6260414;22;20011;-91
2023/03/04 05:38:56;;;;;;;1.38;0.73;;;;;;;16.99;44.85;102703.06;6285454;22;20003;-93
2023/03/04 05:41:21;;;;;;;2.00;0.90;;;;;;;16.99;44.94;102701.34;6290708;22;20002;-92
2023/03/04 05:43:48;;;;;;;2.10;0.80;;;;;;;16.99;45.11;102693.53;6262002;22;20011;-93
2023/03/04 05:46:16;;;;;;;2.10;0.95;;;;;;;16.99;45.03;102693.53;6287682;22;19999;-91
2023/03/04 05:48:43;;;;;;;1.85;0.90;;;;;;;17.00;45.17;102689.22;6260517;22;20049;-91
2023/03/04 05:51:09;;;;;;;3.65;0.93;;;;;;;17.00;45.04;102687.47;6286139;22;20434;-93
2023/03/04 05:53:35;;;;;;;1.90;0.75;;;;;;;17.00;45.00;102689.22;6285857;22;20427;-93
2023/03/04 05:56:29;;;;;;;1.92;0.80;;;;;;;17.01;44.99;102691.00;6286095;22;20038;-92
2023/03/04 05:58:58;;;;;;;1.98;0.80;;;;;;;16.98;45.04;102683.97;6282398;22;20077;-93
2023/03/04 06:01:24;;;;;;;2.47;0.90;;;;;;;17.00;45.16;102691.81;6260172;22;20007;-92
2023/03/04 06:03:49;;;;;;;2.05;0.88;;;;;;;17.00;44.92;102687.47;6285482;22;20008;-94
2023/03/04 06:06:15;;;;;;;1.50;0.70;;;;;;;17.01;45.30;102691.84;6233843;22;20007;-92
2023/03/04 06:08:41;;;;;;;1.90;0.80;;;;;;;17.00;45.13;102690.09;6284687;22;20033;-93
2023/03/04 06:11:06;;;;;;;1.38;0.63;;;;;;;17.01;44.96;102686.66;6287070;22;20436;-92
2023/03/04 06:13:33;;;;;;;1.50;0.77;;;;;;;17.01;44.93;102691.00;6262401;22;20534;-92
2023/03/04 06:15:59;;;;;;;2.00;0.82;;;;;;;17.01;45.23;102685.78;6297230;22;20010;-93
2023/03/04 06:18:27;;;;;;;1.95;0.90;;;;;;;17.01;45.11;102686.66;6288309;22;20010;-92
2023/03/04 06:21:00;;;;;;;2.22;0.70;;;;;;;17.02;45.17;102683.19;6260149;22;19999;-93
2023/03/04 06:23:26;;;;;;;2.40;0.60;;;;;;;17.01;45.07;102685.78;6285644;22;20010;-93
2023/03/04 06:25:57;;;;;;;1.73;0.85;;;;;;;17.02;45.23;102679.72;6286216;22;20015;-93
2023/03/04 06:28:23;;;;;;;2.10;0.77;;;;;;;17.02;44.91;102690.13;6288795;22;20447;-92
2023/03/04 06:30:54;;;;;;;1.63;0.63;;;;;;;17.02;45.16;102701.41;6296506;22;20015;-94
2023/03/04 06:33:20;;;;;;;1.83;0.70;;;;;;;17.03;44.98;102697.09;6308479;22;20018;-92
2023/03/04 06:35:45;;;;;;;1.40;0.65;;;;;;;17.03;45.09;102695.38;6308081;22;20007;-94
2023/03/04 06:38:13;;;;;;;1.35;0.70;;;;;;;17.04;45.23;102701.44;6279555;22;20015;-92
2023/03/04 06:40:39;;;;;;;1.73;0.68;;;;;;;17.04;45.16;102706.66;6294721;22;19999;-94
2023/03/04 06:43:04;;;;;;;1.90;0.70;;;;;;;17.05;45.04;102705.81;6286128;22;20018;-94
2023/03/04 06:45:30;;;;;;;1.77;0.63;;;;;;;17.04;45.25;102711.84;6260601;22;20086;-93
2023/03/04 06:47:55;;;;;;;1.10;0.60;;;;;;;17.06;45.20;102713.63;6259895;22;20003;-93
2023/03/04 06:50:21;;;;;;;0.90;0.52;;;;;;;17.08;45.12;102707.59;6260027;22;20037;-93
2023/03/04 06:52:48;;;;;;;1.80;0.60;;;;;;;17.11;45.02;102705.06;6285408;22;20426;-92
2023/03/04 06:55:14;;;;;;;1.08;0.40;;;;;;;17.13;45.07;102700.78;6285637;22;20015;-91
2023/03/04 06:57:39;;;;;;;1.40;0.57;;;;;;;17.15;45.10;102712.09;6284792;22;20284;-90
2023/03/04 07:00:05;;;;;;;1.58;0.63;;;;;;;17.17;45.15;102710.41;6233834;22;19999;-89
2023/03/04 07:02:31;;;;;;;0.95;0.55;;;;;;;17.17;44.85;102707.81;6259029;22;20443;-90
2023/03/04 07:04:59;;;;;;;1.13;0.52;;;;;;;17.17;44.97;102711.28;6284000;22;20007;-91
2023/03/04 07:07:25;;;;;;;2.03;0.60;;;;;;;17.18;45.28;102712.16;6259458;22;20099;-90
2023/03/04 07:09:50;;;;;;;1.08;0.52;;;;;;;17.18;45.16;102719.94;6233053;22;20007;-89
2023/03/04 07:12:16;;;;;;;3.53;0.60;;;;;;;17.18;45.21;102712.16;6258613;22;20034;-89
2023/03/04 07:14:41;;;;;;;1.08;0.50;;;;;;;17.22;44.94;102713.97;6283756;22;20049;-90
2023/03/04 07:17:06;;;;;;;1.38;0.52;;;;;;;17.36;44.83;102716.91;6258009;22;20015;-90
2023/03/04 07:19:32;;;;;;;1.85;0.52;;;;;;;17.38;44.86;102717.81;6232210;22;20447;-90
2023/03/04 07:22:00;;;;;;;2.05;0.60;;;;;;;17.50;44.76;102715.44;6257191;22;20102;-87
2023/03/04 07:24:26;;;;;;;8.30;2.42;;;;;;;17.68;44.37;102718.44;6281817;22;20121;-86
2023/03/04 07:26:51;;;;;;;14.20;4.18;;;;;;;17.72;44.29;102726.28;6255946;22;20026;-88
2023/03/04 07:29:17;;;;;;;15.52;3.55;;;;;;;17.66;45.18;102714.03;6256864;22;20021;-92
2023/03/04 07:31:42;;;;;;;9.27;2.53;;;;;;;17.66;43.79;102721.84;6257936;22;20023;-89
2023/03/04 07:34:11;;;;;;;8.20;2.40;;;;;;;17.55;44.82;102718.13;6233538;22;20022;-93
2023/03/04 07:36:37;;;;;;;5.82;2.15;;;;;;;17.63;44.35;102724.38;6284021;22;20424;-92
2023/03/04 07:39:04;;;;;;;4.63;2.15;;;;;;;17.69;44.23;102727.97;6284855;22;20003;-91
2023/03/04 07:41:36;;;;;;;4.30;1.70;;;;;;;17.66;44.40;102734.88;6290493;22;20003;-94
2023/03/04 07:44:06;;;;;;;3.50;1.40;;;;;;;17.61;44.23;102726.94;6236152;22;20011;-92
2023/03/04 07:46:31;;;;;;;5.93;1.67;;;;;;;17.57;44.67;102732.06;6278525;22;20024;-91
2023/03/04 07:49:06;;;;;;;4.47;1.27;;;;;;;17.57;44.68;102740.78;6278427;22;20003;-93
2023/03/04 07:51:31;;;;;;;4.68;1.63;;;;;;;17.57;44.85;102738.16;6278360;22;20000;-94
2023/03/04 07:53:59;;;;;;;7.00;1.30;;;;;;;17.55;44.63;102733.75;6278526;22;20049;-93
2023/03/04 07:56:53;;;;;;;;;;;;;;;;;;;;;
2023/03/04 07:59:21;;;;;;;4.05;1.45;;;;;;;17.54;44.78;102730.28;6287108;22;20034;-92
2023/03/04 08:01:47;;;;;;;5.78;1.60;;;;;;;17.56;44.76;102730.31;6258005;22;20003;-92
2023/03/04 08:04:12;;;;;;;3.97;1.35;;;;;;;17.64;44.37;102737.44;6257937;22;20038;-93
2023/03/04 08:06:40;;;;;;;4.80;1.40;;;;;;;17.79;44.10;102734.28;6283375;22;20160;-93
2023/03/04 08:09:07;;;;;;;6.88;1.55;;;;;;;17.95;43.79;102732.00;6283858;22;20003;-91
2023/03/04 08:11:35;;;;;;;3.42;1.30;;;;;;;17.93;43.85;102734.56;6283992;22;20022;-92
2023/03/04 08:14:01;;;;;;;4.60;1.20;;;;;;;17.89;44.08;102728.41;6284904;22;20017;-91
2023/03/04 08:16:27;;;;;;;3.35;1.45;;;;;;;17.79;44.36;102734.28;6260132;22;20097;-93
2023/03/04 08:18:56;;;;;;;2.90;1.10;;;;;;;17.77;44.36;102737.66;6235748;22;20027;-91
2023/03/04 08:21:23;;;;;;;2.65;0.95;;;;;;;17.87;44.04;102739.66;6285621;22;20001;-92
2023/03/04 08:23:50;;;;;;;2.72;1.10;;;;;;;17.99;43.90;102731.22;6290898;22;20011;-91
2023/03/04 08:26:26;;;;;;;2.75;1.25;;;;;;;17.98;43.79;102732.03;6286010;22;20138;-93
2023/03/04 08:28:53;;;;;;;3.38;1.20;;;;;;;17.89;44.10;102737.94;6285570;22;20007;-92
2023/03/04 08:31:19;;;;;;;2.75;1.20;;;;;;;17.93;44.11;102731.09;6284116;22;20015;-92
2023/03/04 08:33:45;;;;;;;2.53;1.05;;;;;;;17.93;43.99;102733.69;6283643;22;20010;-92
2023/03/04 08:36:17;;;;;;;3.38;1.10;;;;;;;18.00;43.93;102735.56;6258740;22;20095;-92
2023/03/04 08:38:43;;;;;;;2.90;1.00;;;;;;;17.99;44.01;102741.63;6283917;22;20502;-91
2023/03/04 08:41:14;;;;;;;2.72;1.10;;;;;;;17.97;44.13;102753.75;6257389;22;20021;-92
2023/03/04 08:43:41;;;;;;;2.28;1.05;;;;;;;18.05;44.02;102744.31;6257585;22;20388;-93
2023/03/04 08:46:06;;;;;;;2.00;1.05;;;;;;;18.15;43.54;102743.66;6284301;22;20019;-93
2023/03/04 08:48:32;;;;;;;3.75;1.00;;;;;;;18.18;43.77;102742.81;6258112;22;20096;-87
2023/03/04 08:50:58;;;;;;;3.50;1.13;;;;;;;18.19;43.62;102744.59;6286775;22;20010;-90
2023/03/04 08:53:23;;;;;;;2.38;0.90;;;;;;;18.12;43.83;102746.22;6235208;22;20007;-91
2023/03/04 08:55:51;;;;;;;3.30;1.17;;;;;;;18.04;44.03;102750.41;6285069;22;20017;-94
2023/03/04 08:58:17;;;;;;;3.30;1.08;;;;;;;17.98;44.18;102743.34;6285759;22;20003;-91
2023/03/04 09:00:47;;;;;;;2.95;1.17;;;;;;;17.96;44.31;102752.84;6285070;22;20052;-91
2023/03/04 09:03:13;;;;;;;2.40;1.05;;;;;;;17.91;44.43;102741.47;6286096;22;20412;-91
2023/03/04 09:05:40;;;;;;;4.00;1.27;;;;;;;17.86;44.76;102737.91;6290306;22;20404;-90
2023/03/04 09:08:06;;;;;;;6.90;1.10;;;;;;;17.80;44.60;102743.81;6289299;22;20007;-93
2023/03/04 09:10:32;;;;;;;6.80;1.30;;;;;;;17.79;44.66;102741.19;6236332;22;20007;-92
2023/03/04 09:12:58;;;;;;;4.13;1.00;;;;;;;17.76;44.81;102734.19;6286515;22;20123;-90
2023/03/04 09:15:23;;;;;;;2.95;1.00;;;;;;;17.72;44.93;102742.78;6286149;22;20003;-91
2023/03/04 09:17:49;;;;;;;3.55;1.10;;;;;;;17.69;44.86;102737.53;6300611;22;20072;-92
2023/03/04 09:20:15;;;;;;;3.10;1.00;;;;;;;17.64;45.11;102734.84;6281080;22;20026;-91
2023/03/04 09:22:41;;;;;;;4.65;1.40;;;;;;;17.62;45.05;102738.25;6310563;22;20011;-91
2023/03/04 09:25:07;;;;;;;3.58;1.23;;;;;;;17.66;45.11;102742.69;6309257;22;20019;-92
2023/03/04 09:27:33;;;;;;;4.30;1.30;;;;;;;17.79;44.78;102735.97;6283295;22;19999;-91
2023/03/04 09:29:58;;;;;;;7.63;1.05;;;;;;;17.82;44.54;102742.16;6291355;22;20078;-90
2023/03/04 09:32:24;;;;;;;4.03;1.30;;;;;;;17.95;44.35;102739.81;6287350;22;20003;-91
2023/03/04 09:34:50;;;;;;;3.20;1.27;;;;;;;17.90;44.42;102742.34;6287121;22;20052;-91
2023/03/04 09:37:18;;;;;;;5.20;1.48;;;;;;;17.82;44.52;102743.91;6235342;22;20024;-92
2023/03/04 09:39:44;;;;;;;2.63;1.10;;;;;;;17.92;44.15;102735.44;6261121;22;20007;-91
2023/03/04 09:42:24;;;;;;;3.92;1.10;;;;;;;18.03;43.98;102731.28;6261561;22;20022;-88
2023/03/04 09:44:52;;;;;;;4.28;1.17;;;;;;;18.06;43.92;102739.16;6285974;22;20003;-92
2023/03/04 09:47:20;;;;;;;3.20;1.27;;;;;;;17.98;44.00;102735.50;6285947;22;20047;-88
2023/03/04 09:49:59;;;;;;;2.92;1.30;;;;;;;17.93;44.30;102731.09;6264234;22;20059;-87
2023/03/04 09:52:36;;;;;;;2.72;1.20;;;;;;;17.91;44.40;102723.22;6286807;22;20419;-94
2023/03/04 09:55:22;;;;;;;4.82;1.30;;;;;;;17.91;44.14;102723.22;6286789;22;20101;-94
2023/03/04 09:58:20;;;;;;;8.48;1.63;;;;;;;17.92;44.21;102721.50;6286861;22;20424;-92
2023/03/04 10:00:54;;;;;;;4.25;1.30;;;;;;;17.93;44.08;102724.16;6286787;22;20012;-95
2023/03/04 10:03:47;;;;;;;4.60;1.35;;;;;;;18.08;43.93;102727.03;6289765;22;20013;-95
2023/03/04 10:06:16;;;;;;;4.45;1.48;;;;;;;17.99;44.10;102724.25;6287487;22;20003;-92
2023/03/04 10:09:00;;;;;;;7.57;1.30;;;;;;;17.83;44.30;102723.09;6286424;22;20082;-94
2023/03/04 10:11:35;;;;;;;5.78;1.17;;;;;;;17.81;44.34;102718.66;6287136;22;20017;-93
2023/03/04 10:14:15;;;;;;;5.75;1.23;;;;;;;17.74;44.38;102725.47;6284804;22;19999;-88
2023/03/04 10:16:47;;;;;;;5.75;1.35;;;;;;;17.79;43.93;102725.56;6284471;22;20424;-93
2023/03/04 10:19:12;;;;;;;4.55;1.67;;;;;;;17.71;42.97;102716.75;6286902;22;20043;-93
2023/03/04 10:21:46;;;;;;;5.30;1.55;;;;;;;17.64;42.29;102726.16;6286361;22;20011;-93
2023/03/04 10:24:18;;;;;;;7.75;1.33;;;;;;;17.77;43.82;102727.25;6286712;22;20082;-90
2023/03/04 10:26:48;;;;;;;7.22;1.70;;;;;;;17.75;43.41;102722.03;6285206;22;20106;-89
2023/03/04 10:29:20;;;;;;;5.60;1.30;;;;;;;17.74;43.33;102725.47;6284779;22;20011;-93
2023/03/04 10:31:46;;;;;;;3.40;1.48;;;;;;;17.77;43.55;102722.94;6286993;22;20003;-90
2023/03/04 10:34:13;;;;;;;4.32;1.20;;;;;;;17.66;43.59;102714.03;6285134;22;20042;-91
2023/03/04 10:36:52;;;;;;;3.80;1.25;;;;;;;17.56;44.12;102719.91;6286965;22;20003;-92
2023/03/04 10:39:23;;;;;;;3.67;1.52;;;;;;;17.53;44.33;102715.53;6287116;22;20011;-91
2023/03/04 10:42:21;;;;;;;4.80;1.38;;;;;;;17.54;44.48;102722.47;6287230;22;20011;-94
2023/03/04 10:45:00;;;;;;;6.93;1.40;;;;;;;17.64;43.88;102719.22;6285508;22;20069;-92
2023/03/04 10:47:28;;;;;;;7.40;1.75;;;;;;;17.67;44.16;102718.41;6286272;22;20535;-91
2023/03/04 10:50:00;;;;;;;6.78;1.63;;;;;;;17.72;43.94;102713.28;6284836;22;20009;-93
2023/03/04 10:52:35;;;;;;;6.78;1.50;;;;;;;17.79;43.70;102718.66;6284080;22;19999;-92
2023/03/04 10:55:13;;;;;;;6.53;1.80;;;;;;;17.79;43.47;102710.84;6284035;22;20011;-88
2023/03/04 10:57:42;;;;;;;5.50;1.80;;;;;;;17.87;43.86;102706.66;6286828;22;20003;-91
2023/03/04 11:00:16;;;;;;;4.90;1.77;;;;;;;17.95;43.78;102712.03;6286721;22;20428;-89
2023/03/04 11:02:43;;;;;;;4.90;2.17;;;;;;;17.96;43.86;102715.50;6284730;22;20007;-91
2023/03/04 11:05:09;;;;;;;5.35;1.77;;;;;;;18.00;44.12;102705.16;6314135;22;20003;-90
2023/03/04 11:07:55;;;;;;;13.93;2.17;;;;;;;18.03;44.03;102700.03;6289411;22;20086;-91
2023/03/04 11:10:23;;;;;;;6.68;1.88;;;;;;;18.01;44.23;102701.72;6290813;22;20003;-91
2023/03/04 11:12:55;;;;;;;4.60;1.77;;;;;;;17.97;44.54;102707.72;6286634;22;20015;-90
2023/03/04 11:15:26;;;;;;;7.97;1.80;;;;;;;18.01;44.80;102701.72;6287798;22;20007;-90
2023/03/04 11:17:58;;;;;;;7.30;2.10;;;;;;;17.96;44.84;102705.94;6282998;22;20432;-90
2023/03/04 11:20:33;;;;;;;6.43;1.60;;;;;;;17.94;45.23;102704.19;6284409;22;20391;-89
2023/03/04 11:23:03;;;;;;;4.45;1.48;;;;;;;17.93;45.15;102705.91;6284392;22;20003;-90
2023/03/04 11:25:35;;;;;;;7.72;1.90;;;;;;;17.86;45.84;102698.84;6284720;22;20067;-89
2023/03/04 11:28:17;;;;;;;10.10;1.95;;;;;;;17.88;46.24;102702.34;6285754;22;20427;-89
2023/03/04 11:30:59;;;;;;;6.47;2.05;;;;;;;17.88;46.66;102707.56;6284360;22;20033;-89